Time;durP1;ratioP1;P1;durP2;ratioP2;P2;SDS_P1;SDS_P2;PMS_P1;PMS_P2;Temp;Humidity;BMP_temperature;BMP_pressure;BME280_temperature;BME280_humidity;BME280_pressure;Samples;Min_cycle;Max_cycle;Signal;HPM_P1;HPM_P2
2022/10/16 00:00:38;;;;;;;1.73;1.63;;;;;;;23.03;61.20;97408.88;5046442;28;20742;-31
2022/10/16 00:03:05;;;;;;;1.70;1.50;;;;;;;23.03;61.06;97414.00;5048976;28;20568;-31
2022/10/16 00:05:31;;;;;;;1.80;1.70;;;;;;;23.03;61.14;97414.00;5044534;28;20209;-31
2022/10/16 00:07:58;;;;;;;1.80;1.70;;;;;;;23.02;61.01;97411.41;5038542;28;20225;-31
2022/10/16 00:10:24;;;;;;;1.60;1.50;;;;;;;23.03;61.22;97420.81;5050325;28;20197;-31
2022/10/16 00:12:51;;;;;;;1.47;1.37;;;;;;;23.03;60.93;97428.50;5042687;28;20224;-31
2022/10/16 00:15:17;;;;;;;1.60;1.50;;;;;;;23.01;61.18;97437.88;5041981;28;20224;-31
2022/10/16 00:17:44;;;;;;;1.80;1.70;;;;;;;23.00;61.11;97431.00;5046122;28;20608;-31
2022/10/16 00:20:10;;;;;;;1.83;1.57;;;;;;;23.04;61.29;97431.09;5045621;28;20205;-32
2022/10/16 00:22:37;;;;;;;1.50;1.40;;;;;;;23.02;61.15;97419.09;5053817;28;20581;-31
2022/10/16 00:25:04;;;;;;;1.70;1.60;;;;;;;23.04;61.29;97440.50;5040453;28;20731;-31
2022/10/16 00:27:30;;;;;;;1.83;1.50;;;;;;;23.00;60.99;97411.38;5031144;28;20206;-32
2022/10/16 00:29:57;;;;;;;1.63;1.43;;;;;;;23.05;61.05;97419.16;5046998;28;20201;-31
2022/10/16 00:32:24;;;;;;;1.80;1.70;;;;;;;23.05;60.92;97429.41;5051180;28;20209;-31
2022/10/16 00:34:54;;;;;;;1.80;1.60;;;;;;;23.01;60.98;97425.91;5057648;28;20201;-31
2022/10/16 00:37:20;;;;;;;1.70;1.60;;;;;;;23.04;61.13;97433.66;5050363;28;20674;-31
2022/10/16 00:39:47;;;;;;;1.97;1.70;;;;;;;23.04;61.07;97437.94;5050984;28;20205;-31
2022/10/16 00:42:15;;;;;;;1.60;1.50;;;;;;;23.05;60.95;97439.66;5048157;28;20209;-31
2022/10/16 00:44:53;;;;;;;1.83;1.67;;;;;;;23.03;61.08;97447.31;5043910;28;20580;-31
2022/10/16 00:47:23;;;;;;;2.27;1.60;;;;;;;23.00;60.93;97441.25;5048753;28;20210;-31
2022/10/16 00:49:51;;;;;;;2.00;1.50;;;;;;;23.04;61.13;97450.75;5040288;28;20208;-32
2022/10/16 00:52:18;;;;;;;1.73;1.60;;;;;;;22.99;61.17;97445.53;5046463;28;20212;-31
2022/10/16 00:54:44;;;;;;;1.63;1.53;;;;;;;22.99;61.06;97444.66;5030973;28;20229;-31
2022/10/16 00:57:11;;;;;;;2.10;1.90;;;;;;;23.04;60.94;97454.16;5055225;28;20220;-31
2022/10/16 00:59:39;;;;;;;1.70;1.60;;;;;;;23.00;61.11;97457.50;5038805;28;20221;-31
2022/10/16 01:02:07;;;;;;;1.60;1.50;;;;;;;23.04;61.00;97464.41;5048394;28;20209;-31
2022/10/16 01:04:39;;;;;;;1.60;1.50;;;;;;;22.96;60.92;97444.59;5051450;28;20211;-31
2022/10/16 01:07:25;;;;;;;1.93;1.60;;;;;;;23.04;60.98;97461.00;5039194;28;20414;-31
2022/10/16 01:10:10;;;;;;;1.53;1.43;;;;;;;23.04;60.92;97456.72;5048336;28;20205;-31
2022/10/16 01:13:28;;;;;;;1.63;1.50;;;;;;;23.04;61.08;97450.75;5048115;28;20205;-31
2022/10/16 01:16:20;;;;;;;1.90;1.70;;;;;;;23.03;60.99;97457.56;5045562;28;20236;-31
2022/10/16 01:18:49;;;;;;;1.80;1.70;;;;;;;23.03;61.06;97465.25;5018634;28;20841;-31
2022/10/16 01:21:22;;;;;;;1.80;1.70;;;;;;;23.03;60.82;97457.56;5040069;28;20694;-31
2022/10/16 01:24:13;;;;;;;1.60;1.50;;;;;;;23.04;61.05;97458.44;5028372;28;20218;-31
2022/10/16 01:26:48;;;;;;;1.83;1.73;;;;;;;23.03;61.12;97459.25;5047834;28;20630;-31
2022/10/16 01:29:20;;;;;;;1.60;1.50;;;;;;;22.94;61.00;97444.56;5041516;28;20227;-31
2022/10/16 01:31:50;;;;;;;1.60;1.50;;;;;;;23.04;60.93;97463.56;5034575;28;20212;-31
2022/10/16 01:34:35;;;;;;;1.60;1.50;;;;;;;22.98;61.07;97455.75;5037686;28;20220;-32
2022/10/16 01:37:07;;;;;;;1.50;1.40;;;;;;;22.97;61.03;97442.06;5026794;28;20196;-31
2022/10/16 01:39:35;;;;;;;2.43;1.60;;;;;;;22.92;60.87;97432.56;5029351;28;20231;-31
2022/10/16 01:42:05;;;;;;;1.47;1.37;;;;;;;22.91;61.10;97431.69;5032051;28;20576;-31
2022/10/16 01:44:32;;;;;;;1.60;1.50;;;;;;;22.96;61.05;97440.34;5051022;28;20573;-32
2022/10/16 01:46:59;;;;;;;1.63;1.53;;;;;;;23.00;61.00;97459.19;5028775;28;20212;-31
2022/10/16 01:49:26;;;;;;;1.50;1.40;;;;;;;23.02;61.27;97468.66;5030506;28;20225;-31
2022/10/16 01:51:55;;;;;;;1.60;1.50;;;;;;;22.98;61.17;97460.88;5032780;28;20216;-31
2022/10/16 01:54:23;;;;;;;3.87;1.60;;;;;;;22.94;61.09;97465.06;5033854;28;20227;-31
2022/10/16 01:56:49;;;;;;;1.70;1.60;;;;;;;22.99;61.18;97468.59;5056371;28;20204;-31
2022/10/16 01:59:18;;;;;;;1.50;1.40;;;;;;;22.92;61.02;97446.22;5040163;28;20703;-31
2022/10/16 02:01:47;;;;;;;1.57;1.47;;;;;;;23.03;60.96;97461.81;5046519;28;20216;-31
2022/10/16 02:04:40;;;;;;;1.50;1.40;;;;;;;23.04;60.93;97468.72;5041583;28;20193;-31
2022/10/16 02:07:06;;;;;;;1.70;1.60;;;;;;;23.03;60.95;97456.69;5057718;28;20208;-31
2022/10/16 02:09:33;;;;;;;1.67;1.57;;;;;;;23.03;61.05;97454.13;5049705;28;20224;-31
2022/10/16 02:12:03;;;;;;;2.27;1.50;;;;;;;23.04;60.98;97453.31;5055349;28;20591;-31
2022/10/16 02:14:30;;;;;;;1.50;1.40;;;;;;;23.02;60.97;97455.84;5052825;28;20236;-31
2022/10/16 02:16:56;;;;;;;1.70;1.60;;;;;;;23.03;61.10;97461.81;5056739;28;20219;-31
2022/10/16 02:19:23;;;;;;;1.63;1.53;;;;;;;23.03;60.97;97464.38;5051926;28;20471;-31
2022/10/16 02:21:54;;;;;;;1.60;1.50;;;;;;;23.03;61.12;97469.50;5037981;28;20205;-31
2022/10/16 02:24:43;;;;;;;1.40;1.30;;;;;;;23.03;61.01;97464.38;5058442;28;20577;-31
2022/10/16 02:27:23;;;;;;;1.90;1.50;;;;;;;23.01;61.26;97469.47;5056781;28;20209;-31
2022/10/16 02:29:58;;;;;;;1.30;1.23;;;;;;;23.02;60.99;97463.53;5057090;28;20203;-31
2022/10/16 02:32:30;;;;;;;1.53;1.43;;;;;;;22.95;60.89;97440.31;5047698;28;20210;-31
2022/10/16 02:34:56;;;;;;;1.70;1.40;;;;;;;23.00;60.87;97454.94;5034040;28;20221;-31
2022/10/16 02:37:23;;;;;;;1.50;1.40;;;;;;;22.99;61.08;97458.34;5048800;28;20463;-31
2022/10/16 02:39:49;;;;;;;1.43;1.33;;;;;;;23.03;60.91;97459.25;5043821;28;20211;-32
2022/10/16 02:42:17;;;;;;;1.67;1.57;;;;;;;23.02;60.77;97457.53;5058394;28;20200;-31
2022/10/16 02:44:43;;;;;;;1.60;1.50;;;;;;;23.00;60.96;97456.63;5048922;28;20288;-31
2022/10/16 02:47:10;;;;;;;1.33;1.23;;;;;;;23.02;61.11;97462.66;5057640;28;20208;-31
2022/10/16 02:49:37;;;;;;;1.50;1.40;;;;;;;23.01;61.18;97464.34;5050113;28;20232;-31
2022/10/16 02:52:04;;;;;;;1.63;1.53;;;;;;;23.03;61.00;97474.63;5050219;28;20209;-31
2022/10/16 02:54:30;;;;;;;1.57;1.47;;;;;;;23.02;61.13;97489.19;5053555;28;20220;-31
2022/10/16 02:56:57;;;;;;;1.40;1.30;;;;;;;23.02;61.04;97490.88;5053015;28;20872;-32
2022/10/16 02:59:24;;;;;;;1.80;1.70;;;;;;;23.01;60.95;97487.41;5051914;28;20236;-31
2022/10/16 03:01:50;;;;;;;2.20;1.50;;;;;;;23.03;61.37;97487.47;5050248;28;20205;-31
2022/10/16 03:04:17;;;;;;;1.53;1.43;;;;;;;23.02;61.08;97491.75;5043104;28;20201;-31
2022/10/16 03:06:43;;;;;;;1.60;1.50;;;;;;;23.02;61.10;97485.75;5057573;28;20208;-31
2022/10/16 03:09:10;;;;;;;1.70;1.60;;;;;;;23.02;61.09;97481.50;5055110;28;20225;-32
2022/10/16 03:11:36;;;;;;;1.43;1.33;;;;;;;23.02;60.97;97488.31;5050191;28;20212;-31
2022/10/16 03:14:03;;;;;;;1.47;1.37;;;;;;;22.98;60.98;97476.25;5053484;28;20224;-31
2022/10/16 03:16:30;;;;;;;1.90;1.70;;;;;;;23.01;61.04;97481.47;5051895;28;20220;-31
2022/10/16 03:18:56;;;;;;;1.50;1.40;;;;;;;23.01;60.98;97481.47;5049714;28;20628;-31
2022/10/16 03:21:23;;;;;;;1.70;1.60;;;;;;;23.02;61.11;97496.00;5049472;28;20204;-31
2022/10/16 03:23:49;;;;;;;3.00;1.70;;;;;;;22.98;61.19;97473.69;5058409;28;20197;-31
2022/10/16 03:26:16;;;;;;;1.60;1.50;;;;;;;23.02;61.13;97480.63;5048323;28;20208;-31
2022/10/16 03:28:42;;;;;;;1.33;1.23;;;;;;;23.03;61.18;97483.22;5049421;28;20225;-31
2022/10/16 03:31:09;;;;;;;1.60;1.50;;;;;;;23.02;60.93;97491.75;5047773;28;20258;-31
2022/10/16 03:33:35;;;;;;;1.70;1.60;;;;;;;23.01;60.61;97482.28;5049010;28;20222;-31
2022/10/16 03:36:02;;;;;;;1.70;1.60;;;;;;;23.02;60.90;97481.50;5049405;28;20200;-31
2022/10/16 03:38:29;;;;;;;1.50;1.40;;;;;;;23.02;61.01;97485.75;5045189;28;20231;-31
2022/10/16 03:40:55;;;;;;;1.60;1.50;;;;;;;23.02;60.96;97486.63;5050149;28;20215;-31
2022/10/16 03:43:22;;;;;;;1.53;1.43;;;;;;;23.02;61.13;97496.88;5047553;28;20691;-31
2022/10/16 03:45:50;;;;;;;1.53;1.43;;;;;;;23.03;60.97;97495.16;5049260;28;20209;-31
2022/10/16 03:48:18;;;;;;;1.53;1.43;;;;;;;23.01;61.10;97497.69;5049157;28;20802;-31
2022/10/16 03:50:45;;;;;;;1.50;1.40;;;;;;;23.01;61.01;97484.00;5048277;28;20228;-31
2022/10/16 03:53:12;;;;;;;1.57;1.47;;;;;;;22.99;61.04;97475.41;5052797;28;20209;-31
2022/10/16 03:55:38;;;;;;;1.57;1.47;;;;;;;23.01;60.98;97484.88;5049006;28;20240;-31
2022/10/16 03:58:05;;;;;;;1.50;1.40;;;;;;;23.02;60.86;97489.19;5037735;28;20232;-31
2022/10/16 04:00:31;;;;;;;1.40;1.30;;;;;;;23.03;61.07;97492.59;5048744;28;20698;-31
2022/10/16 04:02:58;;;;;;;1.50;1.40;;;;;;;23.02;60.97;97494.31;5049317;28;20212;-32
2022/10/16 04:05:24;;;;;;;1.30;1.23;;;;;;;22.93;60.94;97481.28;5040463;28;20619;-31
2022/10/16 04:07:51;;;;;;;1.43;1.33;;;;;;;23.03;61.01;97497.72;5046851;28;20753;-31
2022/10/16 04:10:18;;;;;;;1.63;1.53;;;;;;;23.02;61.02;97494.31;5042159;28;20207;-31
2022/10/16 04:12:45;;;;;;;1.40;1.30;;;;;;;22.35;60.99;97385.91;5049359;28;20209;-32
2022/10/16 04:15:11;;;;;;;1.50;1.40;;;;;;;23.02;60.64;97496.00;5048198;28;20232;-31
2022/10/16 04:17:38;;;;;;;1.50;1.40;;;;;;;23.01;61.02;97497.69;5048183;28;20227;-31
2022/10/16 04:20:05;;;;;;;1.60;1.50;;;;;;;23.02;61.04;97499.44;5049063;28;20205;-32
2022/10/16 04:22:31;;;;;;;1.60;1.50;;;;;;;23.02;61.11;97499.44;5061227;28;20207;-31
2022/10/16 04:24:58;;;;;;;1.50;1.40;;;;;;;23.01;60.98;97499.41;5048919;28;20205;-31
2022/10/16 04:27:25;;;;;;;1.50;1.40;;;;;;;22.96;61.08;97494.16;5048198;28;20209;-32
2022/10/16 04:29:52;;;;;;;1.50;1.40;;;;;;;23.00;61.19;97500.22;5049417;28;20197;-31
2022/10/16 04:32:18;;;;;;;2.50;1.67;;;;;;;23.02;61.20;97513.94;5042974;28;20204;-31
2022/10/16 04:34:44;;;;;;;1.37;1.27;;;;;;;23.00;61.02;97513.03;5043700;28;20368;-31
2022/10/16 04:37:11;;;;;;;2.77;1.60;;;;;;;23.02;61.17;97527.63;5045544;28;20205;-31
2022/10/16 04:39:37;;;;;;;2.30;1.27;;;;;;;23.01;61.23;97540.41;5039994;28;20593;-31
2022/10/16 04:42:04;;;;;;;1.50;1.40;;;;;;;23.01;61.22;97540.41;5042906;28;20702;-31
2022/10/16 04:44:30;;;;;;;1.67;1.43;;;;;;;23.01;61.28;97531.00;5042577;28;20209;-31
2022/10/16 04:46:57;;;;;;;1.70;1.60;;;;;;;22.98;61.12;97514.69;5043287;28;20221;-31
2022/10/16 04:49:23;;;;;;;1.70;1.60;;;;;;;23.01;61.31;97528.44;5045573;28;20320;-31
2022/10/16 04:51:50;;;;;;;3.27;1.50;;;;;;;23.01;61.07;97522.47;5051231;28;20205;-31
2022/10/16 04:54:16;;;;;;;1.50;1.40;;;;;;;23.01;61.18;97496.84;5047677;28;20231;-31
2022/10/16 04:56:46;;;;;;;1.40;1.30;;;;;;;23.01;61.02;97479.72;5047174;28;20201;-31
2022/10/16 04:59:16;;;;;;;2.17;1.40;;;;;;;23.01;61.40;97495.13;5055480;28;20217;-32
2022/10/16 05:01:43;;;;;;;1.60;1.50;;;;;;;23.00;61.20;97502.75;5048275;28;20208;-32
2022/10/16 05:04:09;;;;;;;1.80;1.70;;;;;;;23.02;61.18;97508.81;5044768;28;20211;-31
2022/10/16 05:06:36;;;;;;;1.50;1.40;;;;;;;22.96;61.12;97490.72;5048248;28;20675;-31
2022/10/16 05:09:03;;;;;;;1.67;1.57;;;;;;;23.02;61.24;97507.13;5048404;28;20221;-31
2022/10/16 05:11:29;;;;;;;2.73;1.40;;;;;;;23.01;61.58;97510.50;5048646;28;20213;-31
2022/10/16 05:13:56;;;;;;;1.30;1.20;;;;;;;23.02;61.08;97519.94;5050788;28;20675;-32
2022/10/16 05:16:22;;;;;;;1.50;1.40;;;;;;;23.00;61.04;97503.66;5048466;28;20220;-31
2022/10/16 05:18:50;;;;;;;1.60;1.50;;;;;;;23.02;61.17;97513.94;5048556;28;20228;-31
2022/10/16 05:21:21;;;;;;;1.33;1.23;;;;;;;23.01;61.13;97509.66;5041495;28;20741;-31
2022/10/16 05:23:48;;;;;;;1.23;1.20;;;;;;;23.02;61.35;97511.38;5048146;28;20213;-31
2022/10/16 05:26:14;;;;;;;1.43;1.33;;;;;;;23.02;61.11;97507.13;5043970;28;20212;-31
2022/10/16 05:28:41;;;;;;;1.50;1.40;;;;;;;23.02;61.11;97503.69;5051766;28;20707;-32
2022/10/16 05:31:08;;;;;;;1.60;1.50;;;;;;;23.02;61.18;97513.94;5051671;28;20219;-32
2022/10/16 05:33:35;;;;;;;1.70;1.60;;;;;;;23.03;61.16;97507.97;5051693;28;20201;-32
2022/10/16 05:36:03;;;;;;;1.50;1.40;;;;;;;23.03;61.22;97505.41;5052569;28;20796;-31
2022/10/16 05:38:29;;;;;;;1.70;1.60;;;;;;;23.02;61.16;97507.13;5055410;28;20216;-32
2022/10/16 05:40:56;;;;;;;1.20;1.20;;;;;;;23.02;61.25;97514.81;5050875;28;20213;-32
2022/10/16 05:43:22;;;;;;;1.50;1.40;;;;;;;23.03;61.26;97520.78;5051973;28;20353;-32
2022/10/16 05:46:00;;;;;;;1.33;1.23;;;;;;;23.02;61.16;97525.06;5051214;28;20200;-31
2022/10/16 05:48:26;;;;;;;1.50;1.40;;;;;;;23.03;61.21;97521.66;5049612;28;20608;-32
2022/10/16 05:50:59;;;;;;;1.40;1.30;;;;;;;23.03;61.20;97528.47;5048564;28;20208;-32
2022/10/16 05:53:30;;;;;;;1.53;1.30;;;;;;;23.03;61.02;97531.91;5040210;28;20202;-32
2022/10/16 05:55:57;;;;;;;1.67;1.57;;;;;;;23.04;61.05;97537.91;5059787;28;20749;-32
2022/10/16 05:58:23;;;;;;;1.47;1.37;;;;;;;22.99;61.14;97524.13;5042012;28;20228;-32
2022/10/16 06:00:57;;;;;;;1.23;1.13;;;;;;;22.98;61.03;97528.38;5035236;28;20579;-31
2022/10/16 06:03:23;;;;;;;1.40;1.30;;;;;;;23.04;61.11;97546.44;5040386;28;20209;-32
2022/10/16 06:05:50;;;;;;;1.27;1.27;;;;;;;23.05;61.20;97547.31;5041885;28;20204;-32
2022/10/16 06:08:17;;;;;;;1.60;1.50;;;;;;;23.03;61.15;97544.72;5047822;28;20221;-31
2022/10/16 06:10:44;;;;;;;1.67;1.30;;;;;;;23.04;60.93;97548.16;5043140;28;20197;-32
2022/10/16 06:13:11;;;;;;;1.40;1.30;;;;;;;22.99;61.35;97537.81;5054634;28;20200;-39
2022/10/16 06:15:38;;;;;;;1.17;1.17;;;;;;;23.05;61.07;97547.31;5047237;28;20222;-32
2022/10/16 06:18:05;;;;;;;1.40;1.30;;;;;;;22.95;61.20;97524.88;5048445;28;20228;-31
2022/10/16 06:20:31;;;;;;;1.37;1.30;;;;;;;23.05;61.14;97548.22;5046595;28;20202;-31
2022/10/16 06:22:58;;;;;;;1.43;1.33;;;;;;;23.06;61.09;97541.34;5045614;28;20229;-32
2022/10/16 06:25:25;;;;;;;1.73;1.50;;;;;;;23.06;61.01;97549.03;5046158;28;20205;-32
2022/10/16 06:27:51;;;;;;;1.40;1.30;;;;;;;23.06;61.03;97557.63;5050632;28;20227;-31
2022/10/16 06:30:18;;;;;;;1.60;1.50;;;;;;;23.06;61.10;97570.44;5051116;28;20205;-31
2022/10/16 06:32:44;;;;;;;1.40;1.30;;;;;;;23.05;61.33;97572.97;5050898;28;20209;-32
2022/10/16 06:35:11;;;;;;;1.73;1.53;;;;;;;23.07;61.61;97584.97;5050684;28;20673;-31
2022/10/16 06:37:37;;;;;;;2.53;2.00;;;;;;;23.07;61.55;97597.78;5050804;28;20597;-31
2022/10/16 06:40:04;;;;;;;4.87;2.10;;;;;;;23.07;61.60;97597.78;5054949;28;20212;-31
2022/10/16 06:42:31;;;;;;;2.07;1.70;;;;;;;23.07;61.63;97599.50;5050784;28;20208;-31
2022/10/16 06:44:57;;;;;;;2.40;2.20;;;;;;;23.08;61.45;97601.22;5049497;28;20197;-32
2022/10/16 06:47:24;;;;;;;2.70;2.00;;;;;;;23.07;61.41;97600.34;5050535;28;20212;-31
2022/10/16 06:49:50;;;;;;;3.03;2.00;;;;;;;23.07;61.45;97608.03;5051072;28;20205;-32
2022/10/16 06:52:19;;;;;;;2.70;1.70;;;;;;;23.07;61.47;97602.06;5054911;28;20208;-31
2022/10/16 06:54:46;;;;;;;3.73;2.40;;;;;;;23.07;61.46;97602.91;5051368;28;20228;-32
2022/10/16 06:57:12;;;;;;;2.00;1.80;;;;;;;23.06;61.52;97608.88;5059171;28;20204;-31
2022/10/16 06:59:39;;;;;;;2.00;1.53;;;;;;;23.06;61.28;97610.56;5053373;28;20220;-32
2022/10/16 07:02:10;;;;;;;4.40;2.00;;;;;;;23.07;61.34;97620.88;5050355;28;20209;-32
2022/10/16 07:04:37;;;;;;;3.63;1.73;;;;;;;22.99;60.94;97606.13;5047361;28;20679;-31
2022/10/16 07:07:03;;;;;;;2.63;1.70;;;;;;;23.06;61.26;97616.56;5051000;28;20212;-32
2022/10/16 07:09:34;;;;;;;1.87;1.70;;;;;;;23.06;61.14;97615.69;5050836;28;20224;-31
2022/10/16 07:12:01;;;;;;;3.23;1.90;;;;;;;23.06;61.19;97619.13;5050858;28;20205;-31
2022/10/16 07:14:27;;;;;;;2.10;1.70;;;;;;;23.06;61.14;97619.13;5047905;28;20208;-31
2022/10/16 07:16:54;;;;;;;3.50;1.70;;;;;;;23.06;61.21;97611.44;5042745;28;20223;-32
2022/10/16 07:19:20;;;;;;;1.93;1.70;;;;;;;23.06;61.17;97621.69;5049485;28;20621;-32
2022/10/16 07:21:47;;;;;;;1.97;1.80;;;;;;;23.06;61.28;97629.41;5046642;28;20202;-31
2022/10/16 07:24:15;;;;;;;1.90;1.80;;;;;;;23.04;61.43;97640.44;5051450;28;20241;-32
2022/10/16 07:26:43;;;;;;;2.00;1.80;;;;;;;23.00;61.16;97626.69;5048074;28;20198;-31
2022/10/16 07:29:13;;;;;;;2.00;1.80;;;;;;;23.07;61.17;97643.09;5048635;28;20692;-31
2022/10/16 07:31:40;;;;;;;3.13;2.00;;;;;;;23.07;61.20;97643.09;5047294;28;20205;-31
2022/10/16 07:34:06;;;;;;;4.87;2.00;;;;;;;23.03;61.39;97644.69;5057980;28;20201;-32
2022/10/16 07:36:33;;;;;;;4.70;2.00;;;;;;;23.06;60.60;97652.47;5054365;28;20236;-32
2022/10/16 07:38:59;;;;;;;4.30;1.97;;;;;;;23.06;60.58;97655.03;5063572;28;20652;-31
2022/10/16 07:41:26;;;;;;;3.03;1.77;;;;;;;23.05;59.63;97652.44;5040553;28;20212;-32
2022/10/16 07:43:53;;;;;;;3.17;1.70;;;;;;;23.06;60.20;97654.16;5049277;28;20200;-32
2022/10/16 07:46:21;;;;;;;3.40;1.90;;;;;;;23.06;60.31;97656.72;5052208;28;20204;-32
2022/10/16 07:48:48;;;;;;;2.90;2.07;;;;;;;23.06;60.78;97662.72;5049695;28;20226;-32
2022/10/16 07:51:16;;;;;;;1.90;1.80;;;;;;;23.07;60.80;97658.47;5049240;28;20234;-32
2022/10/16 07:53:42;;;;;;;2.10;1.90;;;;;;;23.04;61.04;97648.16;5045432;28;20211;-32
2022/10/16 07:56:09;;;;;;;1.90;1.80;;;;;;;23.07;61.07;97669.56;5048813;28;20224;-31
2022/10/16 07:58:37;;;;;;;2.37;2.00;;;;;;;23.07;60.87;97673.84;5040344;28;20252;-31
2022/10/16 08:01:04;;;;;;;3.13;1.77;;;;;;;23.03;61.09;97669.44;5044427;28;20294;-31
2022/10/16 08:03:31;;;;;;;1.90;1.73;;;;;;;23.03;60.88;97667.78;5027263;28;20650;-31
2022/10/16 08:05:58;;;;;;;2.57;1.80;;;;;;;23.07;61.11;97677.25;5048608;28;20197;-31
2022/10/16 08:08:24;;;;;;;2.10;1.90;;;;;;;23.08;61.07;97680.72;5042307;28;20722;-31
2022/10/16 08:10:51;;;;;;;2.70;1.73;;;;;;;23.08;60.94;97681.59;5046293;28;20193;-31
2022/10/16 08:13:17;;;;;;;2.63;2.00;;;;;;;23.08;61.07;97680.72;5048577;28;20197;-31
2022/10/16 08:15:44;;;;;;;1.90;1.80;;;;;;;23.09;60.79;97678.19;5042089;28;20228;-32
2022/10/16 08:18:12;;;;;;;2.30;1.60;;;;;;;23.09;60.04;97682.44;5039006;28;20224;-31
2022/10/16 08:20:38;;;;;;;1.90;1.80;;;;;;;23.08;60.14;97680.72;5040523;28;20625;-32
2022/10/16 08:23:05;;;;;;;1.80;1.70;;;;;;;23.08;60.24;97688.41;5047367;28;20208;-31
2022/10/16 08:25:36;;;;;;;1.97;1.80;;;;;;;23.08;59.83;97693.53;5046436;28;20196;-31
2022/10/16 08:28:06;;;;;;;2.53;1.90;;;;;;;23.06;60.32;97692.59;5048091;28;20224;-31
2022/10/16 08:30:33;;;;;;;2.37;2.00;;;;;;;23.07;60.27;97697.78;5048905;28;20208;-31
2022/10/16 08:33:00;;;;;;;1.77;1.67;;;;;;;23.07;60.42;97684.97;5050248;28;20205;-31
2022/10/16 08:35:27;;;;;;;2.33;1.93;;;;;;;23.08;60.71;97686.72;5057590;28;20232;-32
2022/10/16 08:37:54;;;;;;;4.40;2.03;;;;;;;23.07;60.63;97684.09;5051684;28;20225;-32
2022/10/16 08:40:31;;;;;;;2.43;1.97;;;;;;;23.08;60.75;97686.72;5040894;28;20223;-31
2022/10/16 08:43:20;;;;;;;4.63;1.63;;;;;;;23.09;60.82;97693.56;5045769;28;20254;-31
2022/10/16 08:46:11;;;;;;;1.87;1.70;;;;;;;23.09;60.82;97695.25;5052450;28;20236;-32
2022/10/16 08:48:51;;;;;;;1.70;1.60;;;;;;;23.09;60.67;97688.44;5047966;28;20220;-32
2022/10/16 08:51:31;;;;;;;1.73;1.63;;;;;;;23.09;60.94;97698.69;5054920;28;20212;-32
2022/10/16 08:54:04;;;;;;;1.80;1.70;;;;;;;22.93;60.86;97652.13;5042968;28;20209;-31
2022/10/16 08:56:31;;;;;;;2.57;1.70;;;;;;;23.09;60.83;97683.31;5042327;28;20230;-31
2022/10/16 08:58:58;;;;;;;2.50;1.70;;;;;;;23.10;60.92;97690.19;5050399;28;20220;-32
2022/10/16 09:01:40;;;;;;;2.50;1.70;;;;;;;23.04;60.67;97684.03;5044107;28;20232;-31
2022/10/16 09:04:44;;;;;;;4.17;1.70;;;;;;;23.09;60.83;97706.38;5037430;28;20209;-32
2022/10/16 09:07:10;;;;;;;3.07;1.80;;;;;;;23.09;60.94;97706.38;5047535;28;20667;-32
2022/10/16 09:09:43;;;;;;;2.30;1.73;;;;;;;23.07;60.88;97705.47;5049837;28;20225;-32
2022/10/16 09:12:16;;;;;;;1.90;1.80;;;;;;;23.07;60.86;97705.47;5047672;28;20204;-32
2022/10/16 09:15:16;;;;;;;2.17;1.80;;;;;;;23.09;60.69;97714.06;5051165;28;20617;-31
2022/10/16 09:17:49;;;;;;;2.40;1.60;;;;;;;23.10;60.77;97717.50;5044356;28;20229;-32
2022/10/16 09:20:33;;;;;;;1.97;1.70;;;;;;;23.02;60.60;97701.06;5026726;28;20240;-31
2022/10/16 09:23:10;;;;;;;1.70;1.60;;;;;;;23.09;60.68;97716.63;5051670;28;20215;-32
2022/10/16 09:25:36;;;;;;;3.77;1.70;;;;;;;23.10;60.85;97723.53;5031738;28;20212;-31
2022/10/16 09:28:03;;;;;;;1.87;1.73;;;;;;;23.09;60.77;97724.31;5048219;28;20629;-31
2022/10/16 09:30:29;;;;;;;2.30;1.70;;;;;;;23.11;60.71;97732.06;5052349;28;20216;-32
2022/10/16 09:32:57;;;;;;;1.77;1.63;;;;;;;23.11;60.81;97732.06;5053486;28;20696;-32
2022/10/16 09:35:47;;;;;;;1.73;1.63;;;;;;;23.11;61.05;97738.06;5062867;28;20227;-32
2022/10/16 09:38:24;;;;;;;1.87;1.77;;;;;;;23.10;60.70;97738.03;5039448;28;20710;-31
2022/10/16 09:40:50;;;;;;;2.30;1.67;;;;;;;23.09;60.85;97739.72;5055461;28;20393;-31
2022/10/16 09:43:31;;;;;;;5.63;1.80;;;;;;;23.12;60.64;97749.19;5037042;28;20201;-32
2022/10/16 09:45:59;;;;;;;2.10;1.80;;;;;;;23.12;60.75;97744.06;5043771;28;20194;-32
2022/10/16 09:48:36;;;;;;;2.23;1.50;;;;;;;23.12;61.05;97741.50;5053689;28;20519;-32
2022/10/16 09:51:04;;;;;;;4.63;1.70;;;;;;;23.12;61.09;97736.38;5037205;28;20204;-31
2022/10/16 09:53:44;;;;;;;1.87;1.50;;;;;;;23.14;60.95;97755.22;5050037;28;20214;-32
2022/10/16 09:56:22;;;;;;;4.13;1.77;;;;;;;23.09;60.70;97733.72;5058183;28;20219;-32
2022/10/16 09:58:56;;;;;;;2.13;1.80;;;;;;;23.16;60.91;97740.75;5051806;28;20232;-32
2022/10/16 10:01:44;;;;;;;2.00;1.50;;;;;;;23.08;60.95;97724.28;5051524;28;20200;-31
2022/10/16 10:04:11;;;;;;;2.17;1.67;;;;;;;23.13;60.78;97725.28;5046648;28;20687;-31
2022/10/16 10:06:47;;;;;;;1.90;1.57;;;;;;;23.16;60.66;97731.38;5041425;28;20574;-31
2022/10/16 10:09:24;;;;;;;1.90;1.80;;;;;;;23.19;60.39;97731.47;5046926;28;20223;-31
2022/10/16 10:11:52;;;;;;;3.87;1.60;;;;;;;23.20;60.24;97729.72;5050409;28;20635;-31
2022/10/16 10:14:23;;;;;;;1.67;1.57;;;;;;;23.18;60.25;97728.84;5045897;28;20259;-31
2022/10/16 10:16:51;;;;;;;3.07;1.53;;;;;;;23.23;60.24;97732.38;5033740;28;20726;-31
2022/10/16 10:19:21;;;;;;;2.47;1.50;;;;;;;23.22;60.24;97739.22;5050531;28;20416;-31
2022/10/16 10:21:49;;;;;;;3.10;1.53;;;;;;;23.19;60.03;97730.56;5049128;28;20205;-32
2022/10/16 10:24:16;;;;;;;1.67;1.57;;;;;;;23.23;59.80;97740.94;5051951;28;20208;-31
2022/10/16 10:27:00;;;;;;;1.97;1.60;;;;;;;23.25;59.97;97743.59;5054402;28;20207;-31
2022/10/16 10:29:39;;;;;;;4.63;1.80;;;;;;;23.22;59.99;97728.97;5030150;28;20232;-32
2022/10/16 10:32:21;;;;;;;1.70;1.60;;;;;;;23.26;59.87;97735.94;5056240;28;20215;-31
2022/10/16 10:35:18;;;;;;;1.83;1.53;;;;;;;23.22;59.72;97726.41;5049609;28;20205;-31
2022/10/16 10:37:56;;;;;;;2.70;1.80;;;;;;;23.27;59.60;97737.66;5049351;28;20601;-31
2022/10/16 10:40:38;;;;;;;1.70;1.60;;;;;;;23.28;59.77;97744.53;5062162;28;20204;-31
2022/10/16 10:43:17;;;;;;;2.03;1.67;;;;;;;23.20;59.56;97732.28;5051005;28;20213;-31
2022/10/16 10:45:48;;;;;;;1.70;1.60;;;;;;;23.28;59.40;97741.09;5048340;28;20211;-31
2022/10/16 10:48:51;;;;;;;2.93;1.60;;;;;;;23.29;59.54;97748.84;5052485;28;20623;-31
2022/10/16 10:51:59;;;;;;;1.50;1.40;;;;;;;23.29;58.97;97746.28;5046974;28;20682;-31
2022/10/16 10:54:42;;;;;;;2.10;1.60;;;;;;;23.30;59.02;97747.16;5043375;28;20205;-31
2022/10/16 10:57:40;;;;;;;1.87;1.60;;;;;;;23.30;59.00;97745.44;5048845;28;20232;-32
2022/10/16 11:00:10;;;;;;;2.77;1.93;;;;;;;23.31;58.80;97746.31;5051215;28;20230;-32
2022/10/16 11:02:52;;;;;;;1.67;1.50;;;;;;;23.26;58.97;97740.19;5049639;28;20205;-31
2022/10/16 11:05:42;;;;;;;1.80;1.70;;;;;;;23.31;59.03;97741.19;5049392;28;20216;-31
2022/10/16 11:08:12;;;;;;;1.63;1.40;;;;;;;23.31;58.87;97736.06;5049422;28;20719;-31
2022/10/16 11:10:53;;;;;;;3.33;1.80;;;;;;;23.30;58.69;97737.75;5050294;28;20204;-31
2022/10/16 11:13:57;;;;;;;2.77;1.63;;;;;;;23.31;58.43;97741.19;5052772;28;20203;-31
2022/10/16 11:16:27;;;;;;;1.70;1.60;;;;;;;23.31;58.49;97741.19;5044515;28;20634;-31
2022/10/16 11:19:09;;;;;;;1.80;1.70;;;;;;;23.29;58.40;97737.69;5033686;28;20228;-31
2022/10/16 11:22:01;;;;;;;1.43;1.30;;;;;;;23.30;58.11;97737.75;5045541;28;20690;-31
2022/10/16 11:24:48;;;;;;;2.73;1.90;;;;;;;23.31;58.39;97743.75;5043389;28;20208;-31
2022/10/16 11:27:17;;;;;;;1.70;1.60;;;;;;;23.31;58.13;97736.06;5045608;28;20721;-31
2022/10/16 11:29:50;;;;;;;2.67;1.70;;;;;;;23.31;58.09;97734.38;5060386;28;20211;-31
2022/10/16 11:32:23;;;;;;;1.40;1.30;;;;;;;23.32;58.01;97727.50;5044611;28;20209;-31
2022/10/16 11:34:53;;;;;;;2.07;1.63;;;;;;;23.24;57.96;97718.78;5045507;28;20205;-31
2022/10/16 11:37:40;;;;;;;2.43;1.50;;;;;;;23.22;57.81;97717.84;5047758;28;20232;-31
2022/10/16 11:40:24;;;;;;;1.40;1.30;;;;;;;23.33;57.74;97729.28;5039220;28;20212;-31
2022/10/16 11:43:16;;;;;;;1.70;1.60;;;;;;;23.30;57.63;97719.78;5048303;28;20205;-31
2022/10/16 11:45:45;;;;;;;1.40;1.30;;;;;;;23.31;57.72;97720.66;5029472;28;20750;-32
2022/10/16 11:48:14;;;;;;;1.57;1.47;;;;;;;23.31;57.59;97718.97;5028573;28;20316;-31
2022/10/16 11:50:54;;;;;;;1.83;1.43;;;;;;;23.24;57.73;97709.38;5046542;28;20630;-31